createdAt,value
2019-01-30T00:00:32.973Z,4.43
2019-01-30T00:01:12.782Z,4.43
2019-01-30T00:01:48.171Z,4.73
2019-01-30T00:02:23.672Z,4.93
2019-01-30T00:02:59.183Z,4.67
2019-01-30T00:03:34.636Z,4.83
2019-01-30T00:04:10.274Z,4.60
2019-01-30T00:04:45.944Z,4.60
2019-01-30T00:05:21.402Z,4.77
2019-01-30T00:05:56.830Z,4.27
2019-01-30T00:06:32.542Z,5.10
2019-01-30T00:07:07.974Z,4.50
2019-01-30T00:07:43.366Z,4.77
2019-01-30T00:08:19.025Z,4.13
2019-01-30T00:08:54.434Z,4.80
2019-01-30T00:09:29.988Z,4.77
2019-01-30T00:10:07.222Z,4.13
2019-01-30T00:10:42.611Z,4.67
2019-01-30T00:11:18.295Z,4.73
2019-01-30T00:11:53.956Z,4.77
2019-01-30T00:12:29.416Z,4.47
2019-01-30T00:13:05.483Z,4.60
2019-01-30T00:13:40.976Z,4.47
2019-01-30T00:14:16.709Z,4.30
2019-01-30T00:14:52.677Z,4.23
2019-01-30T00:15:28.223Z,4.50
2019-01-30T00:16:04.086Z,4.37
2019-01-30T00:16:39.480Z,3.83
2019-01-30T00:17:15.195Z,4.57
2019-01-30T00:17:50.825Z,4.60
2019-01-30T00:18:26.240Z,4.83
2019-01-30T00:19:01.960Z,4.63
2019-01-30T00:19:37.642Z,5.10
2019-01-30T00:20:13.426Z,4.63
2019-01-30T00:20:48.851Z,4.27
2019-01-30T00:21:24.316Z,4.63
2019-01-30T00:21:59.789Z,4.20
2019-01-30T00:22:35.184Z,4.37
2019-01-30T00:23:10.612Z,4.43
2019-01-30T00:23:46.048Z,4.17
2019-01-30T00:24:21.437Z,4.23
2019-01-30T00:24:56.906Z,4.37
2019-01-30T00:25:32.626Z,5.00
2019-01-30T00:26:08.046Z,4.03
2019-01-30T00:26:43.506Z,4.33
2019-01-30T00:27:18.938Z,4.77
2019-01-30T00:27:54.338Z,4.23
2019-01-30T00:28:29.810Z,4.73
2019-01-30T00:29:05.444Z,4.73
2019-01-30T00:29:41.079Z,4.70
2019-01-30T00:30:17.155Z,4.30
2019-01-30T00:30:52.554Z,4.50
2019-01-30T00:31:28.197Z,4.27
2019-01-30T00:32:04.070Z,4.23
2019-01-30T00:32:39.725Z,4.73
2019-01-30T00:33:15.136Z,4.40
2019-01-30T00:33:50.534Z,4.87
2019-01-30T00:34:26.484Z,4.27
2019-01-30T00:35:02.313Z,4.57
2019-01-30T00:35:37.714Z,4.53
2019-01-30T00:36:13.426Z,4.30
2019-01-30T00:36:49.081Z,4.87
2019-01-30T00:37:24.489Z,5.03
2019-01-30T00:37:59.974Z,4.40
2019-01-30T00:38:35.415Z,4.70
2019-01-30T00:39:11.110Z,4.37
2019-01-30T00:39:46.775Z,4.87
2019-01-30T00:40:22.624Z,5.00
2019-01-30T00:40:58.069Z,5.20
2019-01-30T00:41:33.560Z,4.50
2019-01-30T00:42:09.080Z,5.10
2019-01-30T00:42:44.520Z,4.17
2019-01-30T00:43:20.174Z,4.97
2019-01-30T00:43:55.624Z,5.10
2019-01-30T00:44:32.119Z,4.77
2019-01-30T00:45:10.019Z,4.60
2019-01-30T00:45:45.690Z,5.00
2019-01-30T00:46:21.167Z,4.90
2019-01-30T00:46:56.712Z,4.33
2019-01-30T00:47:34.884Z,4.83
2019-01-30T00:48:09.592Z,4.67
2019-01-30T00:48:44.993Z,4.83
2019-01-30T00:49:20.491Z,4.90
2019-01-30T00:49:56.148Z,5.27
2019-01-30T00:50:31.865Z,4.90
2019-01-30T00:51:07.266Z,4.93
2019-01-30T00:51:42.932Z,5.03
2019-01-30T00:52:18.599Z,5.10
2019-01-30T00:52:54.025Z,4.83
2019-01-30T00:53:30.069Z,5.15
2019-01-30T00:54:05.627Z,4.90
2019-01-30T00:54:41.014Z,4.87
2019-01-30T00:55:16.538Z,5.27
2019-01-30T00:55:51.936Z,4.77
2019-01-30T00:56:27.359Z,4.97
2019-01-30T00:57:02.790Z,4.60
2019-01-30T00:57:38.192Z,5.60
2019-01-30T00:58:13.851Z,4.87
2019-01-30T00:58:49.814Z,4.80
2019-01-30T00:59:25.496Z,4.57
2019-01-30T01:00:00.979Z,5.30
2019-01-30T01:00:36.514Z,4.63
2019-01-30T01:01:11.943Z,5.10
2019-01-30T01:01:47.612Z,4.80
2019-01-30T01:02:22.990Z,4.80
2019-01-30T01:02:58.512Z,5.30
2019-01-30T01:03:33.950Z,5.10
2019-01-30T01:04:09.330Z,4.83
2019-01-30T01:04:44.725Z,5.10
2019-01-30T01:05:20.595Z,5.10
2019-01-30T01:05:56.005Z,5.07
2019-01-30T01:06:31.489Z,5.10
2019-01-30T01:07:06.996Z,5.23
2019-01-30T01:07:42.923Z,5.10
2019-01-30T01:08:18.311Z,5.83
2019-01-30T01:08:53.780Z,5.63
2019-01-30T01:09:29.208Z,4.93
2019-01-30T01:10:06.655Z,5.20
2019-01-30T01:10:42.128Z,5.40
2019-01-30T01:11:17.595Z,5.17
2019-01-30T01:11:52.976Z,5.07
2019-01-30T01:12:28.663Z,4.80
2019-01-30T01:13:04.353Z,5.43
2019-01-30T01:13:40.006Z,4.87
2019-01-30T01:14:15.405Z,5.37
2019-01-30T01:14:50.779Z,4.90
2019-01-30T01:15:26.195Z,5.23
2019-01-30T01:16:02.068Z,4.73
2019-01-30T01:16:37.474Z,4.90
2019-01-30T01:17:12.862Z,5.43
2019-01-30T01:17:48.371Z,5.43
2019-01-30T01:18:24.031Z,5.10
2019-01-30T01:18:59.801Z,5.20
2019-01-30T01:19:35.248Z,5.10
2019-01-30T01:20:12.706Z,5.07
2019-01-30T01:20:48.355Z,4.93
2019-01-30T01:21:23.735Z,5.50
2019-01-30T01:21:59.245Z,4.87
2019-01-30T01:22:34.948Z,5.07
2019-01-30T01:23:10.624Z,5.07
2019-01-30T01:23:46.240Z,5.23
2019-01-30T01:24:21.886Z,5.33
2019-01-30T01:24:57.302Z,5.60
2019-01-30T01:25:32.801Z,5.20
2019-01-30T01:26:08.485Z,5.73
2019-01-30T01:26:43.912Z,5.20
2019-01-30T01:27:19.290Z,5.67
2019-01-30T01:27:54.705Z,5.13
2019-01-30T01:28:30.122Z,5.57
2019-01-30T01:29:05.841Z,4.97
2019-01-30T01:29:41.224Z,5.07
2019-01-30T01:30:25.405Z,4.93
2019-01-30T01:30:56.415Z,4.87
2019-01-30T01:31:31.816Z,5.67
2019-01-30T01:32:07.229Z,5.03
2019-01-30T01:32:42.607Z,5.40
2019-01-30T01:33:18.009Z,5.37
2019-01-30T01:33:53.404Z,5.57
2019-01-30T01:34:29.162Z,5.07
2019-01-30T01:35:05.684Z,5.20
2019-01-30T01:35:41.053Z,5.13
2019-01-30T01:36:16.683Z,5.17
2019-01-30T01:36:52.071Z,5.53
2019-01-30T01:37:27.483Z,5.23
2019-01-30T01:38:02.924Z,5.67
2019-01-30T01:38:38.352Z,5.40
2019-01-30T01:39:13.734Z,5.27
2019-01-30T01:39:50.947Z,5.33
2019-01-30T01:40:26.396Z,5.60
2019-01-30T01:41:01.815Z,5.40
2019-01-30T01:41:37.459Z,5.10
2019-01-30T01:42:12.869Z,4.87
2019-01-30T01:42:48.575Z,5.10
2019-01-30T01:43:24.005Z,5.90
2019-01-30T01:43:59.438Z,5.47
2019-01-30T01:44:35.094Z,5.47
2019-01-30T01:45:13.168Z,5.90
2019-01-30T01:45:48.820Z,5.20
2019-01-30T01:46:24.231Z,5.80
2019-01-30T01:46:59.921Z,5.37
2019-01-30T01:47:35.422Z,5.47
2019-01-30T01:48:10.850Z,5.57
2019-01-30T01:48:46.259Z,5.27
2019-01-30T01:49:22.014Z,5.27
2019-01-30T01:49:57.447Z,5.60
2019-01-30T01:50:33.106Z,5.57
2019-01-30T01:51:08.617Z,5.57
2019-01-30T01:51:44.090Z,4.87
2019-01-30T01:52:19.564Z,5.33
2019-01-30T01:52:54.948Z,6.03
2019-01-30T01:53:30.504Z,5.93
2019-01-30T01:54:05.918Z,5.60
2019-01-30T01:54:41.287Z,5.17
2019-01-30T01:55:16.877Z,5.70
2019-01-30T01:55:52.508Z,6.40
2019-01-30T01:56:27.943Z,5.50
2019-01-30T01:57:03.335Z,5.73
2019-01-30T01:57:38.745Z,6.07
2019-01-30T01:58:14.443Z,5.43
2019-01-30T01:58:49.828Z,5.43
2019-01-30T01:59:25.246Z,5.40
2019-01-30T02:00:00.753Z,5.83
2019-01-30T02:00:36.188Z,5.80
2019-01-30T02:01:11.588Z,6.27
2019-01-30T02:01:47.059Z,5.77
2019-01-30T02:02:22.719Z,5.90
2019-01-30T02:02:58.559Z,5.67
2019-01-30T02:03:34.019Z,4.83
2019-01-30T02:04:09.414Z,5.07
2019-01-30T02:04:44.850Z,5.43
2019-01-30T02:05:21.566Z,5.53
2019-01-30T02:05:57.224Z,5.83
2019-01-30T02:06:32.618Z,5.77
2019-01-30T02:07:08.006Z,5.27
2019-01-30T02:07:43.697Z,5.30
2019-01-30T02:08:19.068Z,5.37
2019-01-30T02:08:54.510Z,5.50
2019-01-30T02:09:29.943Z,5.07
2019-01-30T02:10:07.079Z,5.50
2019-01-30T02:10:42.470Z,5.47
2019-01-30T02:11:17.852Z,5.60
2019-01-30T02:11:53.227Z,4.93
2019-01-30T02:12:28.989Z,5.65
2019-01-30T02:13:04.826Z,4.60
2019-01-30T02:13:40.478Z,5.37
2019-01-30T02:14:16.117Z,5.23
2019-01-30T02:14:51.505Z,4.87
2019-01-30T02:15:27.022Z,5.50
2019-01-30T02:16:02.551Z,5.40
2019-01-30T02:16:37.946Z,5.13
2019-01-30T02:17:13.341Z,4.90
2019-01-30T02:17:49.002Z,5.13
2019-01-30T02:18:24.703Z,5.65
2019-01-30T02:19:00.280Z,5.83
2019-01-30T02:19:36.015Z,5.70
2019-01-30T02:20:14.678Z,5.33
2019-01-30T02:20:50.039Z,5.83
2019-01-30T02:21:25.441Z,5.07
2019-01-30T02:22:01.381Z,5.50
2019-01-30T02:22:36.771Z,5.03
2019-01-30T02:23:12.252Z,5.30
2019-01-30T02:23:47.658Z,5.30
2019-01-30T02:24:23.345Z,5.20
2019-01-30T02:24:58.760Z,5.47
2019-01-30T02:25:34.170Z,5.60
2019-01-30T02:26:09.791Z,5.87
2019-01-30T02:26:45.444Z,5.10
2019-01-30T02:27:20.845Z,5.80
2019-01-30T02:27:56.831Z,5.10
2019-01-30T02:28:32.238Z,5.60
2019-01-30T02:29:07.748Z,5.50
2019-01-30T02:29:43.147Z,5.67
2019-01-30T02:30:20.647Z,5.17
2019-01-30T02:30:56.157Z,5.03
2019-01-30T02:31:31.712Z,5.43
2019-01-30T02:32:07.393Z,5.30
2019-01-30T02:32:42.780Z,5.27
2019-01-30T02:33:18.202Z,5.07
2019-01-30T02:33:53.753Z,5.63
2019-01-30T02:34:29.484Z,5.00
2019-01-30T02:35:05.732Z,5.83
2019-01-30T02:35:41.139Z,5.57
2019-01-30T02:36:16.837Z,5.28
2019-01-30T02:36:58.615Z,4.90
2019-01-30T02:37:34.375Z,5.28
2019-01-30T02:38:09.764Z,5.20
2019-01-30T02:38:45.191Z,5.47
2019-01-30T02:39:20.872Z,5.57
2019-01-30T02:39:56.299Z,5.00
2019-01-30T02:40:31.885Z,5.00
2019-01-30T02:41:07.360Z,5.90
2019-01-30T02:41:43.033Z,5.03
2019-01-30T02:42:18.451Z,5.37
2019-01-30T02:42:54.216Z,5.73
2019-01-30T02:43:29.988Z,5.20
2019-01-30T02:44:05.563Z,5.37
2019-01-30T02:44:40.969Z,5.50
2019-01-30T02:45:18.375Z,5.40
2019-01-30T02:45:54.214Z,5.40
2019-01-30T02:46:30.455Z,6.00
2019-01-30T02:47:05.961Z,5.13
2019-01-30T02:47:41.391Z,5.60
2019-01-30T02:48:16.838Z,5.67
2019-01-30T02:48:52.255Z,5.53
2019-01-30T02:49:27.785Z,5.47
2019-01-30T02:50:03.464Z,5.53
2019-01-30T02:50:38.914Z,5.80
2019-01-30T02:51:14.341Z,5.50
2019-01-30T02:51:49.771Z,4.80
2019-01-30T02:52:25.187Z,5.30
2019-01-30T02:53:00.624Z,5.50
2019-01-30T02:53:36.126Z,5.37
2019-01-30T02:54:11.544Z,5.37
2019-01-30T02:54:46.972Z,5.37
2019-01-30T02:55:22.476Z,5.47
2019-01-30T02:55:57.952Z,5.10
2019-01-30T02:56:33.688Z,5.43
2019-01-30T02:57:09.220Z,5.87
2019-01-30T02:57:44.609Z,5.27
2019-01-30T02:58:20.026Z,5.90
2019-01-30T02:58:55.935Z,5.10
2019-01-30T02:59:31.416Z,5.10
2019-01-30T03:00:09.179Z,5.03
2019-01-30T03:00:44.893Z,5.20
2019-01-30T03:01:20.928Z,5.65
2019-01-30T03:02:14.006Z,5.57
2019-01-30T03:02:49.549Z,5.17
2019-01-30T03:03:24.941Z,4.50
2019-01-30T03:04:00.780Z,5.10
2019-01-30T03:04:36.271Z,5.20
2019-01-30T03:05:12.381Z,5.00
2019-01-30T03:05:47.808Z,5.30
2019-01-30T03:06:23.238Z,4.93
2019-01-30T03:06:58.764Z,5.23
2019-01-30T03:07:34.350Z,5.73
2019-01-30T03:08:10.045Z,5.20
2019-01-30T03:08:45.608Z,5.90
2019-01-30T03:09:21.323Z,5.07
2019-01-30T03:09:57.083Z,4.93
2019-01-30T03:10:32.572Z,5.33
2019-01-30T03:11:08.306Z,5.47
2019-01-30T03:11:43.758Z,5.20
2019-01-30T03:12:19.188Z,5.33
2019-01-30T03:12:54.607Z,5.20
2019-01-30T03:13:30.053Z,5.63
2019-01-30T03:14:05.511Z,5.27
2019-01-30T03:14:40.940Z,5.57
2019-01-30T03:15:16.929Z,5.03
2019-01-30T03:15:52.630Z,5.80
2019-01-30T03:16:28.093Z,5.30
2019-01-30T03:17:03.580Z,5.43
2019-01-30T03:17:39.001Z,4.60
2019-01-30T03:18:14.932Z,5.60
2019-01-30T03:18:50.661Z,5.40
2019-01-30T03:19:26.482Z,5.73
2019-01-30T03:20:02.281Z,5.87
2019-01-30T03:20:37.968Z,5.07
2019-01-30T03:21:13.405Z,5.57
2019-01-30T03:21:48.838Z,5.27
2019-01-30T03:22:24.529Z,5.10
2019-01-30T03:23:00.088Z,5.33
2019-01-30T03:23:35.553Z,6.13
2019-01-30T03:24:11.025Z,5.93
2019-01-30T03:24:46.423Z,4.87
2019-01-30T03:25:22.982Z,5.33
2019-01-30T03:25:59.010Z,4.85
2019-01-30T03:26:34.457Z,5.07
2019-01-30T03:27:10.428Z,5.53
2019-01-30T03:27:45.894Z,4.90
2019-01-30T03:28:21.419Z,6.00
2019-01-30T03:28:56.910Z,4.87
2019-01-30T03:29:32.731Z,5.07
2019-01-30T03:30:11.783Z,4.93
2019-01-30T03:30:47.223Z,5.57
2019-01-30T03:31:22.748Z,5.60
2019-01-30T03:31:58.523Z,4.75
2019-01-30T03:32:34.025Z,5.10
2019-01-30T03:33:09.451Z,5.57
2019-01-30T03:33:45.166Z,5.63
2019-01-30T03:34:20.607Z,5.80
2019-01-30T03:34:56.366Z,5.37
2019-01-30T03:35:32.107Z,5.03
2019-01-30T03:36:07.565Z,5.43
2019-01-30T03:36:42.988Z,5.10
2019-01-30T03:37:18.507Z,5.60
2019-01-30T03:37:53.924Z,5.00
2019-01-30T03:38:29.423Z,5.53
2019-01-30T03:39:07.740Z,5.10
2019-01-30T03:39:43.430Z,5.47
2019-01-30T03:40:19.373Z,5.73
2019-01-30T03:40:54.817Z,5.10
2019-01-30T03:41:30.586Z,5.33
2019-01-30T03:42:06.263Z,5.17
2019-01-30T03:42:41.674Z,5.27
2019-01-30T03:43:17.095Z,5.33
2019-01-30T03:43:52.507Z,5.53
2019-01-30T03:44:28.069Z,5.20
2019-01-30T03:45:04.429Z,5.67
2019-01-30T03:45:39.987Z,5.57
2019-01-30T03:46:15.674Z,5.47
2019-01-30T03:46:51.378Z,5.07
2019-01-30T03:47:26.849Z,5.23
2019-01-30T03:48:02.345Z,5.33
2019-01-30T03:48:38.078Z,5.40
2019-01-30T03:49:13.596Z,5.53
2019-01-30T03:49:49.308Z,5.30
2019-01-30T03:50:25.064Z,5.37
2019-01-30T03:51:00.493Z,5.80
2019-01-30T03:51:36.073Z,5.20
2019-01-30T03:52:11.496Z,5.20
2019-01-30T03:52:46.955Z,6.00
2019-01-30T03:53:22.456Z,5.60
2019-01-30T03:53:58.247Z,5.53
2019-01-30T03:54:34.022Z,5.77
2019-01-30T03:55:10.889Z,5.73
2019-01-30T03:55:46.299Z,5.93
2019-01-30T03:56:22.067Z,5.20
2019-01-30T03:56:57.579Z,5.63
2019-01-30T03:57:33.325Z,5.13
2019-01-30T03:58:08.775Z,5.60
2019-01-30T03:58:44.197Z,5.50
2019-01-30T03:59:19.869Z,5.60
2019-01-30T03:59:55.409Z,5.47
2019-01-30T04:00:30.977Z,5.60
2019-01-30T04:01:06.697Z,5.30
2019-01-30T04:01:42.105Z,4.93
2019-01-30T04:02:17.521Z,5.90
2019-01-30T04:02:53.167Z,5.53
2019-01-30T04:03:28.610Z,5.17
2019-01-30T04:04:04.308Z,4.97
2019-01-30T04:04:39.774Z,5.73
2019-01-30T04:05:15.455Z,5.40
2019-01-30T04:05:50.868Z,5.43
2019-01-30T04:06:26.465Z,5.23
2019-01-30T04:07:02.054Z,5.30
2019-01-30T04:07:37.479Z,4.80
2019-01-30T04:08:13.201Z,5.33
2019-01-30T04:08:48.684Z,4.90
2019-01-30T04:09:24.100Z,5.50
2019-01-30T04:09:59.738Z,5.83
2019-01-30T04:10:35.170Z,5.83
2019-01-30T04:11:10.798Z,5.20
2019-01-30T04:11:46.170Z,5.60
2019-01-30T04:12:21.543Z,5.27
2019-01-30T04:12:57.361Z,5.37
2019-01-30T04:13:32.822Z,6.03
2019-01-30T04:14:08.505Z,5.97
2019-01-30T04:14:43.954Z,5.00
2019-01-30T04:15:19.411Z,5.77
2019-01-30T04:15:55.172Z,5.63
2019-01-30T04:16:30.808Z,4.57
2019-01-30T04:17:06.282Z,5.23
2019-01-30T04:17:41.790Z,5.47
2019-01-30T04:18:17.589Z,5.17
2019-01-30T04:18:53.304Z,5.17
2019-01-30T04:19:29.074Z,5.30
2019-01-30T04:20:05.231Z,5.73
2019-01-30T04:20:40.608Z,5.03
2019-01-30T04:21:15.991Z,5.37
2019-01-30T04:21:51.369Z,5.73
2019-01-30T04:22:26.794Z,5.53
2019-01-30T04:23:02.266Z,5.40
2019-01-30T04:23:37.731Z,5.10
2019-01-30T04:24:13.230Z,6.00
2019-01-30T04:24:48.623Z,4.90
2019-01-30T04:25:24.007Z,5.07
2019-01-30T04:25:59.443Z,5.47
2019-01-30T04:26:34.886Z,5.80
2019-01-30T04:27:10.546Z,5.83
2019-01-30T04:27:45.942Z,6.00
2019-01-30T04:28:21.314Z,5.23
2019-01-30T04:28:56.798Z,6.47
2019-01-30T04:29:32.322Z,5.33
2019-01-30T04:30:11.304Z,5.47
2019-01-30T04:30:46.943Z,5.93
2019-01-30T04:31:22.612Z,5.63
2019-01-30T04:31:58.318Z,5.87
2019-01-30T04:32:33.766Z,6.17
2019-01-30T04:33:09.160Z,5.83
2019-01-30T04:33:44.644Z,5.80
2019-01-30T04:34:20.060Z,5.97
2019-01-30T04:34:55.484Z,6.17
2019-01-30T04:35:30.936Z,5.37
2019-01-30T04:36:06.369Z,6.10
2019-01-30T04:36:41.759Z,5.40
2019-01-30T04:37:17.432Z,6.00
2019-01-30T04:37:53.083Z,6.17
2019-01-30T04:38:28.691Z,5.67
2019-01-30T04:39:05.590Z,6.10
2019-01-30T04:39:40.998Z,5.27
2019-01-30T04:40:18.315Z,5.80
2019-01-30T04:40:54.008Z,5.83
2019-01-30T04:41:29.542Z,5.20
2019-01-30T04:42:05.108Z,6.27
2019-01-30T04:42:40.510Z,5.27
2019-01-30T04:43:16.146Z,6.37
2019-01-30T04:43:51.537Z,6.20
2019-01-30T04:44:27.277Z,5.77
2019-01-30T04:45:02.992Z,6.50
2019-01-30T04:45:38.390Z,6.63
2019-01-30T04:46:13.773Z,5.67
2019-01-30T04:46:49.468Z,6.30
2019-01-30T04:47:25.180Z,5.63
2019-01-30T04:48:00.639Z,5.90
2019-01-30T04:48:36.085Z,5.97
2019-01-30T04:49:11.477Z,6.43
2019-01-30T04:49:46.903Z,6.30
2019-01-30T04:50:22.322Z,6.20
2019-01-30T04:50:58.139Z,6.57
2019-01-30T04:51:33.598Z,6.30
2019-01-30T04:52:09.258Z,6.67
2019-01-30T04:52:44.739Z,5.70
2019-01-30T04:53:20.415Z,6.30
2019-01-30T04:53:55.919Z,6.80
2019-01-30T04:54:31.452Z,5.67
2019-01-30T04:55:07.079Z,5.67
2019-01-30T04:55:42.481Z,6.10
2019-01-30T04:56:18.159Z,6.37
2019-01-30T04:56:53.559Z,6.27
2019-01-30T04:57:29.233Z,6.27
2019-01-30T04:58:04.781Z,6.00
2019-01-30T04:58:40.193Z,6.03
2019-01-30T04:59:15.574Z,6.50
2019-01-30T04:59:50.969Z,6.30
2019-01-30T05:00:26.710Z,6.70
2019-01-30T05:01:02.473Z,6.90
2019-01-30T05:01:49.230Z,6.70
2019-01-30T05:02:15.342Z,6.00
2019-01-30T05:02:51.097Z,6.50
2019-01-30T05:03:26.491Z,6.43
2019-01-30T05:04:02.147Z,6.60
2019-01-30T05:04:37.596Z,6.00
2019-01-30T05:05:13.419Z,6.50
2019-01-30T05:05:48.791Z,5.97
2019-01-30T05:06:24.436Z,6.17
2019-01-30T05:06:59.914Z,6.23
2019-01-30T05:07:35.357Z,6.30
2019-01-30T05:08:11.015Z,6.27
2019-01-30T05:08:46.426Z,6.63
2019-01-30T05:09:21.795Z,6.87
2019-01-30T05:09:57.232Z,6.77
2019-01-30T05:10:32.662Z,6.57
2019-01-30T05:11:08.059Z,6.03
2019-01-30T05:11:43.458Z,7.00
2019-01-30T05:12:18.863Z,7.00
2019-01-30T05:12:54.292Z,6.43
2019-01-30T05:13:29.705Z,6.90
2019-01-30T05:14:05.425Z,6.77
2019-01-30T05:14:41.109Z,6.77
2019-01-30T05:15:17.869Z,6.87
2019-01-30T05:15:53.345Z,6.83
2019-01-30T05:16:28.775Z,7.47
2019-01-30T05:17:04.309Z,6.70
2019-01-30T05:17:39.705Z,6.43
2019-01-30T05:18:15.418Z,6.83
2019-01-30T05:18:50.809Z,7.27
2019-01-30T05:19:26.295Z,7.10
2019-01-30T05:20:01.852Z,6.17
2019-01-30T05:20:37.267Z,6.87
2019-01-30T05:21:12.674Z,6.33
2019-01-30T05:21:48.061Z,7.07
2019-01-30T05:22:23.787Z,6.87
2019-01-30T05:22:59.261Z,7.20
2019-01-30T05:23:34.705Z,7.10
2019-01-30T05:24:10.101Z,6.30
2019-01-30T05:24:45.764Z,6.63
2019-01-30T05:25:21.154Z,6.77
2019-01-30T05:25:59.939Z,6.80
2019-01-30T05:26:34.767Z,6.67
2019-01-30T05:27:10.184Z,6.70
2019-01-30T05:27:45.581Z,6.20
2019-01-30T05:28:21.251Z,6.93
2019-01-30T05:28:56.807Z,6.37
2019-01-30T05:29:32.552Z,6.23
2019-01-30T05:30:11.640Z,6.17
2019-01-30T05:30:47.108Z,7.30
2019-01-30T05:31:22.509Z,6.00
2019-01-30T05:32:01.267Z,6.27
2019-01-30T05:32:35.416Z,6.60
2019-01-30T05:33:10.832Z,6.33
2019-01-30T05:33:46.253Z,6.27
2019-01-30T05:34:21.652Z,6.73
2019-01-30T05:34:57.193Z,6.70
2019-01-30T05:35:32.640Z,6.57
2019-01-30T05:36:08.077Z,6.20
2019-01-30T05:36:43.727Z,6.47
2019-01-30T05:37:19.394Z,6.70
2019-01-30T05:37:55.104Z,6.13
2019-01-30T05:38:30.651Z,6.53
2019-01-30T05:39:09.676Z,6.47
2019-01-30T05:39:45.145Z,6.23
2019-01-30T05:40:20.630Z,6.77
2019-01-30T05:40:56.047Z,6.50
2019-01-30T05:41:31.735Z,7.10
2019-01-30T05:42:07.248Z,6.67
2019-01-30T05:42:42.663Z,6.20
2019-01-30T05:43:18.065Z,6.30
2019-01-30T05:43:53.705Z,7.20
2019-01-30T05:44:29.158Z,7.13
2019-01-30T05:45:05.600Z,6.97
2019-01-30T05:45:40.972Z,6.50
2019-01-30T05:46:16.473Z,6.43
2019-01-30T05:46:51.969Z,6.90
2019-01-30T05:47:27.402Z,7.13
2019-01-30T05:48:02.836Z,6.33
2019-01-30T05:48:38.259Z,6.67
2019-01-30T05:49:13.682Z,6.53
2019-01-30T05:49:49.216Z,6.40
2019-01-30T05:50:24.611Z,6.67
2019-01-30T05:51:00.092Z,6.40
2019-01-30T05:51:35.827Z,6.70
2019-01-30T05:52:11.480Z,6.93
2019-01-30T05:52:47.219Z,6.50
2019-01-30T05:53:22.708Z,6.90
2019-01-30T05:53:58.182Z,7.30
2019-01-30T05:54:34.004Z,6.53
2019-01-30T05:55:09.789Z,7.13
2019-01-30T05:55:45.194Z,7.27
2019-01-30T05:56:20.578Z,6.47
2019-01-30T05:56:56.032Z,7.33
2019-01-30T05:57:31.439Z,6.47
2019-01-30T05:58:07.047Z,6.00
2019-01-30T05:58:42.434Z,7.17
2019-01-30T05:59:18.196Z,6.80
2019-01-30T05:59:53.640Z,7.60
2019-01-30T06:00:34.621Z,6.93
2019-01-30T06:01:10.009Z,6.70
2019-01-30T06:01:45.469Z,6.97
2019-01-30T06:02:20.933Z,6.33
2019-01-30T06:02:56.554Z,6.90
2019-01-30T06:03:31.996Z,6.87
2019-01-30T06:04:07.374Z,7.30
2019-01-30T06:04:42.773Z,6.67
2019-01-30T06:05:18.468Z,5.97
2019-01-30T06:05:53.891Z,7.33
2019-01-30T06:06:29.376Z,6.70
2019-01-30T06:07:04.827Z,6.87
2019-01-30T06:07:40.207Z,6.30
2019-01-30T06:08:15.768Z,6.73
2019-01-30T06:08:51.461Z,7.03
2019-01-30T06:09:26.869Z,6.73
2019-01-30T06:10:02.380Z,7.00
2019-01-30T06:10:37.821Z,7.93
2019-01-30T06:11:13.225Z,7.00
2019-01-30T06:11:48.617Z,6.90
2019-01-30T06:12:24.004Z,7.30
2019-01-30T06:12:59.458Z,7.90
2019-01-30T06:13:34.921Z,7.23
2019-01-30T06:14:10.384Z,6.97
2019-01-30T06:14:46.046Z,7.27
2019-01-30T06:15:21.794Z,7.30
2019-01-30T06:15:57.654Z,6.53
2019-01-30T06:16:33.057Z,7.07
2019-01-30T06:17:09.754Z,7.10
2019-01-30T06:17:45.505Z,7.30
2019-01-30T06:18:20.876Z,7.30
2019-01-30T06:18:56.520Z,6.83
2019-01-30T06:19:32.060Z,7.63
2019-01-30T06:20:10.305Z,6.73
2019-01-30T06:20:45.716Z,7.53
2019-01-30T06:21:21.113Z,7.77
2019-01-30T06:21:56.518Z,7.40
2019-01-30T06:22:31.932Z,7.17
2019-01-30T06:23:07.356Z,7.73
2019-01-30T06:23:42.869Z,7.50
2019-01-30T06:24:18.208Z,7.30
2019-01-30T06:24:53.589Z,7.60
2019-01-30T06:25:29.205Z,7.70
2019-01-30T06:26:04.630Z,7.57
2019-01-30T06:26:40.135Z,8.33
2019-01-30T06:27:15.756Z,7.77
2019-01-30T06:27:51.136Z,8.43
2019-01-30T06:28:29.289Z,7.53
2019-01-30T06:29:03.864Z,6.90
2019-01-30T06:29:39.287Z,7.60
2019-01-30T06:30:16.282Z,7.47
2019-01-30T06:30:51.703Z,7.60
2019-01-30T06:31:27.211Z,6.97
2019-01-30T06:32:02.953Z,7.50
2019-01-30T06:32:38.380Z,8.13
2019-01-30T06:33:13.801Z,7.83
2019-01-30T06:33:49.201Z,7.60
2019-01-30T06:34:24.592Z,7.73
2019-01-30T06:35:00.004Z,7.37
2019-01-30T06:35:35.755Z,7.50
2019-01-30T06:36:11.246Z,8.23
2019-01-30T06:36:46.652Z,8.13
2019-01-30T06:37:22.170Z,8.50
2019-01-30T06:37:57.867Z,7.50
2019-01-30T06:38:33.386Z,8.10
2019-01-30T06:39:09.488Z,8.10
2019-01-30T06:39:45.562Z,8.33
2019-01-30T06:40:26.004Z,8.37
2019-01-30T06:41:01.612Z,8.43
2019-01-30T06:41:37.039Z,7.60
2019-01-30T06:42:12.708Z,8.87
2019-01-30T06:42:48.376Z,7.93
2019-01-30T06:43:24.038Z,7.90
2019-01-30T06:43:59.642Z,7.87
2019-01-30T06:44:35.055Z,8.53
2019-01-30T06:45:10.691Z,8.17
2019-01-30T06:45:46.652Z,8.70
2019-01-30T06:46:22.249Z,8.53
2019-01-30T06:46:57.689Z,8.73
2019-01-30T06:47:33.145Z,9.07
2019-01-30T06:48:08.548Z,8.93
2019-01-30T06:48:44.060Z,9.10
2019-01-30T06:49:19.481Z,9.03
2019-01-30T06:49:54.897Z,8.70
2019-01-30T06:50:30.498Z,9.23
2019-01-30T06:51:05.984Z,9.17
2019-01-30T06:51:41.369Z,10.03
2019-01-30T06:52:16.777Z,9.47
2019-01-30T06:52:52.730Z,9.57
2019-01-30T06:53:28.481Z,9.08
2019-01-30T06:54:03.985Z,9.80
2019-01-30T06:54:41.067Z,9.60
2019-01-30T06:55:16.522Z,10.40
2019-01-30T06:55:52.207Z,9.97
2019-01-30T06:56:27.657Z,10.80
2019-01-30T06:57:03.110Z,10.43
2019-01-30T06:57:38.812Z,10.03
2019-01-30T06:58:14.217Z,11.03
2019-01-30T06:58:49.609Z,10.63
2019-01-30T06:59:25.042Z,10.60
2019-01-30T07:00:00.462Z,10.63
2019-01-30T07:00:35.984Z,11.33
2019-01-30T07:01:11.472Z,11.30
2019-01-30T07:01:46.874Z,11.53
2019-01-30T07:02:31.796Z,11.37
2019-01-30T07:02:59.875Z,11.77
2019-01-30T07:03:35.498Z,10.83
2019-01-30T07:04:11.029Z,11.13
2019-01-30T07:04:46.723Z,12.27
2019-01-30T07:05:22.114Z,12.70
2019-01-30T07:05:57.618Z,11.70
2019-01-30T07:06:33.083Z,12.47
2019-01-30T07:07:08.608Z,12.47
2019-01-30T07:07:44.321Z,12.50
2019-01-30T07:08:19.729Z,12.47
2019-01-30T07:08:55.144Z,12.03
2019-01-30T07:09:30.583Z,12.33
2019-01-30T07:10:09.353Z,12.27
2019-01-30T07:10:45.055Z,12.93
2019-01-30T07:11:20.494Z,13.57
2019-01-30T07:11:55.900Z,12.73
2019-01-30T07:12:31.390Z,13.17
2019-01-30T07:13:06.865Z,14.17
2019-01-30T07:13:42.267Z,13.67
2019-01-30T07:14:17.648Z,13.40
2019-01-30T07:14:53.050Z,13.33
2019-01-30T07:15:28.724Z,13.07
2019-01-30T07:16:04.353Z,13.43
2019-01-30T07:16:39.813Z,12.70
2019-01-30T07:17:15.232Z,12.73
2019-01-30T07:17:50.978Z,12.93
2019-01-30T07:18:26.483Z,12.70
2019-01-30T07:19:01.965Z,13.10
2019-01-30T07:19:37.410Z,13.67
2019-01-30T07:20:13.382Z,13.10
2019-01-30T07:20:48.800Z,13.60
2019-01-30T07:21:24.237Z,12.87
2019-01-30T07:21:59.728Z,13.90
2019-01-30T07:22:35.378Z,12.63
2019-01-30T07:23:10.778Z,13.30
2019-01-30T07:23:46.227Z,12.70
2019-01-30T07:24:21.903Z,12.67
2019-01-30T07:24:57.679Z,13.37
2019-01-30T07:25:33.136Z,13.43
2019-01-30T07:26:08.828Z,13.17
2019-01-30T07:26:44.515Z,14.00
2019-01-30T07:27:19.916Z,14.03
2019-01-30T07:27:55.427Z,13.90
2019-01-30T07:28:31.394Z,13.23
2019-01-30T07:29:07.126Z,15.53
2019-01-30T07:29:42.530Z,13.57
2019-01-30T07:30:29.475Z,13.80
2019-01-30T07:31:05.029Z,14.50
2019-01-30T07:31:40.438Z,13.07
2019-01-30T07:32:15.845Z,14.37
2019-01-30T07:32:51.370Z,14.53
2019-01-30T07:33:26.828Z,16.60
2019-01-30T07:34:02.296Z,16.13
2019-01-30T07:34:37.773Z,14.23
2019-01-30T07:35:13.175Z,16.67
2019-01-30T07:35:48.603Z,14.83
2019-01-30T07:36:24.345Z,15.60
2019-01-30T07:36:59.988Z,16.53
2019-01-30T07:37:35.604Z,14.07
2019-01-30T07:38:11.010Z,15.00
2019-01-30T07:38:46.410Z,13.20
2019-01-30T07:39:21.830Z,13.40
2019-01-30T07:39:57.556Z,15.03
2019-01-30T07:40:32.989Z,14.20
2019-01-30T07:41:08.432Z,13.07
2019-01-30T07:41:43.844Z,13.77
2019-01-30T07:42:19.346Z,14.70
2019-01-30T07:42:55.379Z,14.30
2019-01-30T07:43:31.138Z,13.87
2019-01-30T07:44:07.010Z,14.87
2019-01-30T07:44:50.461Z,15.37
2019-01-30T07:45:20.863Z,13.27
2019-01-30T07:45:56.635Z,13.13
2019-01-30T07:46:32.296Z,13.93
2019-01-30T07:47:07.803Z,13.90
2019-01-30T07:47:43.273Z,14.30
2019-01-30T07:48:18.705Z,14.70
2019-01-30T07:48:54.136Z,15.57
2019-01-30T07:49:29.606Z,14.77
2019-01-30T07:50:06.439Z,14.23
2019-01-30T07:50:41.834Z,13.83
2019-01-30T07:51:17.563Z,16.07
2019-01-30T07:51:53.356Z,14.77
2019-01-30T07:52:28.925Z,13.60
2019-01-30T07:53:04.536Z,13.93
2019-01-30T07:53:39.951Z,13.33